createdAt,value
2019-04-19T09:23:12.902Z,8.93
2019-04-19T09:26:00.470Z,11.47
2019-04-19T09:28:45.010Z,10.40
2019-04-19T09:31:04.393Z,10.03
2019-04-19T09:33:26.200Z,9.57
2019-04-19T09:35:58.931Z,10.03
2019-04-19T09:38:32.576Z,11.43
2019-04-19T09:40:57.860Z,8.57
2019-04-19T09:43:36.033Z,9.93
2019-04-19T09:45:53.322Z,11.00
2019-04-19T09:48:42.129Z,8.77
2019-04-19T09:51:10.064Z,9.77
2019-04-19T09:53:48.784Z,9.33
2019-04-19T09:56:12.172Z,8.67
2019-04-19T09:58:40.010Z,7.90
2019-04-19T10:01:06.522Z,9.40
2019-04-19T10:03:41.838Z,11.40
2019-04-19T10:06:07.251Z,9.20
2019-04-19T10:08:36.051Z,8.40
2019-04-19T10:11:05.272Z,10.53
2019-04-19T10:13:34.496Z,8.73
2019-04-19T10:16:22.198Z,9.23
2019-04-19T10:18:56.084Z,7.93
2019-04-19T10:21:34.197Z,8.27
2019-04-19T10:24:09.903Z,9.70
2019-04-19T10:26:38.422Z,8.83
2019-04-19T10:29:16.913Z,8.30
2019-04-19T10:31:49.035Z,8.37
2019-04-19T10:34:16.722Z,8.70
2019-04-19T10:36:47.681Z,9.00
2019-04-19T10:39:20.025Z,8.30
2019-04-19T10:41:50.084Z,9.50
2019-04-19T10:44:23.168Z,9.50
2019-04-19T10:46:50.943Z,8.23
2019-04-19T10:49:30.804Z,10.30
2019-04-19T10:52:05.130Z,9.60
2019-04-19T10:54:34.123Z,7.93
2019-04-19T10:57:23.255Z,8.13
2019-04-19T10:59:54.433Z,7.33
2019-04-19T11:02:28.438Z,9.20
2019-04-19T11:04:58.756Z,9.00
2019-04-19T11:07:27.749Z,7.30
2019-04-19T11:09:57.733Z,10.57
2019-04-19T11:12:28.040Z,8.87
2019-04-19T11:14:57.935Z,7.50
2019-04-19T11:17:27.607Z,9.23
2019-04-19T11:20:13.902Z,7.50
2019-04-19T11:22:28.054Z,8.00
2019-04-19T11:24:56.940Z,8.47
2019-04-19T11:27:26.830Z,9.20
2019-04-19T11:29:58.705Z,8.30
2019-04-19T11:32:40.052Z,8.73
2019-04-19T11:35:11.619Z,8.87
2019-04-19T11:37:40.658Z,8.40
2019-04-19T11:40:09.560Z,10.30
2019-04-19T11:42:39.338Z,10.00
2019-04-19T11:45:09.926Z,8.60
2019-04-19T11:47:38.890Z,9.07
2019-04-19T11:50:07.790Z,9.20
2019-04-19T11:52:41.852Z,9.20
2019-04-19T11:55:10.722Z,8.03
2019-04-19T11:57:44.145Z,9.73
2019-04-19T12:00:38.515Z,8.93
2019-04-19T12:03:07.437Z,8.70
2019-04-19T12:05:36.260Z,8.90
2019-04-19T12:08:06.403Z,8.57
2019-04-19T12:10:35.924Z,9.07
2019-04-19T12:13:06.767Z,11.30
2019-04-19T12:15:35.920Z,9.87
2019-04-19T12:18:06.131Z,8.97
2019-04-19T12:20:35.335Z,9.07
2019-04-19T12:23:04.231Z,8.80
2019-04-19T12:25:33.413Z,8.23
2019-04-19T12:28:03.563Z,8.27
2019-04-19T12:30:33.624Z,5.97
2019-04-19T12:33:03.561Z,7.30
2019-04-19T12:35:32.497Z,6.20
2019-04-19T12:38:01.997Z,6.83
2019-04-19T12:40:36.253Z,5.43
2019-04-19T12:43:05.241Z,6.23
2019-04-19T12:45:34.091Z,6.03
2019-04-19T12:48:02.944Z,5.80
2019-04-19T12:50:35.354Z,6.20
2019-04-19T12:53:02.331Z,5.70
2019-04-19T12:55:32.318Z,5.47
2019-04-19T12:58:04.070Z,6.43
2019-04-19T13:00:58.555Z,5.97
2019-04-19T13:04:00.238Z,4.95
2019-04-19T13:06:31.677Z,8.20
2019-04-19T13:09:01.348Z,6.13
2019-04-19T13:11:30.586Z,5.10
2019-04-19T13:13:59.762Z,6.30
2019-04-19T13:16:30.319Z,5.23
2019-04-19T13:19:00.418Z,6.33
2019-04-19T13:21:29.426Z,5.63
2019-04-19T13:23:58.504Z,6.73
2019-04-19T13:26:27.557Z,6.73
2019-04-19T13:28:57.686Z,6.47
2019-04-19T13:31:27.085Z,5.67
2019-04-19T13:33:57.522Z,5.80
2019-04-19T13:36:49.067Z,7.27
2019-04-19T13:39:36.264Z,6.17
2019-04-19T13:42:10.858Z,6.03
2019-04-19T13:44:40.906Z,5.30
2019-04-19T13:47:11.033Z,6.00
2019-04-19T13:49:40.258Z,5.53
2019-04-19T13:52:10.473Z,6.13
2019-04-19T13:54:40.740Z,5.40
2019-04-19T13:57:11.217Z,4.90
2019-04-19T13:59:48.133Z,5.23
2019-04-19T14:02:10.759Z,5.47
2019-04-19T14:04:39.815Z,5.40
2019-04-19T14:07:09.502Z,5.80
2019-04-19T14:09:39.227Z,5.13
2019-04-19T14:12:09.306Z,5.77
2019-04-19T14:14:39.125Z,6.13
2019-04-19T14:17:08.345Z,4.90
2019-04-19T14:19:42.775Z,6.03
2019-04-19T14:22:13.418Z,4.90
2019-04-19T14:24:43.092Z,5.53
2019-04-19T14:27:13.205Z,4.83
2019-04-19T14:29:43.576Z,5.00
2019-04-19T14:32:13.653Z,5.10
2019-04-19T14:34:43.724Z,6.07
2019-04-19T14:37:14.521Z,5.90
2019-04-19T14:39:44.697Z,6.80
2019-04-19T14:42:24.573Z,5.60
2019-04-19T14:44:51.932Z,5.83
2019-04-19T14:47:21.347Z,5.33
2019-04-19T14:49:50.519Z,5.70
2019-04-19T14:52:19.329Z,6.70
2019-04-19T14:54:48.203Z,6.45
2019-04-19T14:57:18.150Z,6.50
2019-04-19T14:59:49.027Z,5.07
2019-04-19T15:02:38.699Z,6.70
2019-04-19T15:05:17.328Z,6.13
2019-04-19T15:07:46.451Z,5.60
2019-04-19T15:10:15.672Z,6.40
2019-04-19T15:12:44.903Z,5.37
2019-04-19T15:15:14.574Z,7.23
2019-04-19T15:17:43.602Z,5.60
2019-04-19T15:20:13.869Z,5.40
2019-04-19T15:22:44.090Z,5.80
2019-04-19T15:25:13.351Z,6.73
2019-04-19T15:27:43.019Z,5.47
2019-04-19T15:30:12.973Z,6.17
2019-04-19T15:32:42.453Z,5.57
2019-04-19T15:35:12.315Z,5.47
2019-04-19T15:37:41.372Z,5.90
2019-04-19T15:40:11.906Z,5.93
2019-04-19T15:42:40.930Z,5.73
2019-04-19T15:45:11.109Z,6.00
2019-04-19T15:47:40.135Z,6.10
2019-04-19T15:50:11.782Z,5.60
2019-04-19T15:52:41.966Z,6.07
2019-04-19T15:55:12.289Z,5.47
2019-04-19T15:57:41.876Z,5.73
2019-04-19T16:00:14.028Z,6.00
2019-04-19T16:02:53.982Z,6.23
2019-04-19T16:05:42.196Z,4.90
2019-04-19T16:08:18.172Z,5.30
2019-04-19T16:11:18.580Z,5.47
2019-04-19T16:13:48.320Z,5.27
